createdAt,value
2017-11-12T00:02:39.225Z,98581.74
2017-11-12T00:08:42.833Z,98584.09
2017-11-12T00:14:46.415Z,98577.42
2017-11-12T00:20:50.763Z,98577.59
2017-11-12T00:26:55.307Z,98575.73
2017-11-12T00:32:59.384Z,98571.05
2017-11-12T00:39:02.914Z,98566.62
2017-11-12T00:45:06.808Z,98575.72
2017-11-12T00:51:10.420Z,98582.50
2017-11-12T00:57:14.000Z,98581.81
2017-11-12T01:03:17.742Z,98586.72
2017-11-12T01:09:22.319Z,98579.77
2017-11-12T01:15:25.952Z,98579.95
2017-11-12T01:21:29.700Z,98572.23
2017-11-12T01:27:33.387Z,98567.77
2017-11-12T01:33:37.065Z,98563.28
2017-11-12T01:39:40.590Z,98557.32
2017-11-12T01:45:44.528Z,98553.34
2017-11-12T01:51:48.575Z,98547.14
2017-11-12T01:57:52.191Z,98546.63
2017-11-12T02:03:55.744Z,98547.73
2017-11-12T02:10:01.629Z,98541.98
2017-11-12T02:16:05.196Z,98524.07
2017-11-12T02:22:08.726Z,98524.88
2017-11-12T02:28:12.530Z,98534.83
2017-11-12T02:34:16.872Z,98534.34
2017-11-12T02:40:20.441Z,98531.23
2017-11-12T02:46:25.228Z,98533.75
2017-11-12T02:52:29.609Z,98534.22
2017-11-12T02:58:33.401Z,98534.27
2017-11-12T03:04:38.376Z,98537.23
2017-11-12T03:10:42.283Z,98531.85
2017-11-12T03:16:45.776Z,98527.32
2017-11-12T03:22:50.271Z,98527.57
2017-11-12T03:28:54.544Z,98514.41
2017-11-12T03:34:58.111Z,98500.88
2017-11-12T03:41:02.493Z,98501.52
2017-11-12T03:47:05.990Z,98495.09
2017-11-12T03:53:11.511Z,98499.68
2017-11-12T03:59:16.001Z,98504.25
2017-11-12T04:05:19.541Z,98491.74
2017-11-12T04:11:23.112Z,98491.32
2017-11-12T04:17:28.019Z,98489.02
2017-11-12T04:23:33.541Z,98485.23
2017-11-12T04:29:37.429Z,98474.53
2017-11-12T04:35:41.738Z,98476.55
2017-11-12T04:41:45.280Z,98474.80
2017-11-12T04:47:48.858Z,98466.02
2017-11-12T04:53:52.823Z,98456.56
2017-11-12T04:59:56.514Z,98446.98
2017-11-12T05:06:01.342Z,98441.27
2017-11-12T05:12:06.415Z,98440.50
2017-11-12T05:18:10.791Z,98424.17
2017-11-12T05:24:14.689Z,98418.88
2017-11-12T05:40:04.109Z,98402.31
2017-11-12T05:46:09.190Z,98395.91
2017-11-12T05:52:15.885Z,98390.39
2017-11-12T05:58:20.469Z,98391.08
2017-11-12T06:04:24.092Z,98380.97
2017-11-12T06:10:28.574Z,98371.02
2017-11-12T06:16:32.126Z,98366.81
2017-11-12T06:22:36.020Z,98348.14
2017-11-12T06:28:44.172Z,98341.48
2017-11-12T06:34:48.736Z,98334.44
2017-11-12T06:40:53.029Z,98334.13
2017-11-12T06:46:57.479Z,98312.67
2017-11-12T06:53:01.168Z,98318.34
2017-11-12T06:59:05.851Z,98317.64
2017-11-12T07:18:10.133Z,98268.71
2017-11-12T07:24:13.674Z,98263.09
2017-11-12T07:30:17.307Z,98248.30
2017-11-12T07:36:20.932Z,98236.47
2017-11-12T07:42:24.665Z,98226.30
2017-11-12T07:48:28.237Z,98215.47
2017-11-12T07:54:32.658Z,98199.93
2017-11-12T08:00:36.583Z,98195.70
2017-11-12T08:06:41.216Z,98187.13
2017-11-12T08:12:45.442Z,98182.05
2017-11-12T08:18:49.726Z,98178.03
2017-11-12T08:24:54.018Z,98170.38
2017-11-12T08:30:57.620Z,98174.16
2017-11-12T08:37:01.166Z,98165.67
2017-11-12T08:43:06.298Z,98151.73
2017-11-12T08:49:12.223Z,98154.92
2017-11-12T09:08:17.901Z,98120.67
2017-11-12T09:27:25.596Z,98102.22
2017-11-12T09:33:29.381Z,98092.30
2017-11-12T09:39:32.899Z,98098.54
2017-11-12T09:45:36.747Z,98098.78
2017-11-12T09:51:42.785Z,98095.50
2017-11-12T09:57:46.596Z,98082.39
2017-11-12T10:16:50.097Z,98022.84
2017-11-12T10:22:53.545Z,98017.14
2017-11-12T10:28:57.805Z,98010.30
2017-11-12T10:35:01.264Z,97995.13
2017-11-12T10:41:04.733Z,97973.84
2017-11-12T10:47:08.203Z,97933.39
2017-11-12T10:53:11.655Z,97922.09
2017-11-12T10:59:15.843Z,97907.61
2017-11-12T11:05:19.620Z,97883.75
2017-11-12T11:12:26.638Z,97857.78
2017-11-12T11:18:30.881Z,97837.09
2017-11-12T11:24:34.324Z,97813.34
2017-11-12T11:30:37.774Z,97797.26
2017-11-12T11:36:41.240Z,97768.19
2017-11-12T11:42:44.714Z,97791.55
2017-11-12T11:48:48.170Z,97843.72
2017-11-12T11:54:52.396Z,97824.22
2017-11-12T12:00:55.842Z,97824.52
2017-11-12T12:07:00.115Z,97811.77
2017-11-12T12:13:03.608Z,97796.89
2017-11-12T12:19:08.642Z,97766.33
2017-11-12T12:25:12.118Z,97767.14
2017-11-12T12:31:15.579Z,97780.45
2017-11-12T12:37:19.047Z,97770.38
2017-11-12T12:43:22.510Z,97761.52
2017-11-12T12:49:25.993Z,97756.36
2017-11-12T12:55:29.456Z,97740.73
2017-11-12T13:01:33.695Z,97746.93
2017-11-12T13:07:37.164Z,97736.52
2017-11-12T13:13:40.643Z,97738.64
2017-11-12T13:19:44.091Z,97741.88
2017-11-12T13:25:47.562Z,97750.88
2017-11-12T13:31:51.038Z,97756.59
2017-11-12T13:37:54.503Z,97748.61
2017-11-12T13:43:58.326Z,97735.86
2017-11-12T13:50:03.080Z,97727.92
2017-11-12T13:56:06.567Z,97723.38
2017-11-12T14:02:10.025Z,97719.83
2017-11-12T14:08:14.263Z,97711.62
2017-11-12T14:14:17.715Z,97707.75
2017-11-12T14:20:21.970Z,97704.80
2017-11-12T14:26:25.418Z,97714.99
2017-11-12T14:32:28.895Z,97729.95
2017-11-12T14:38:32.404Z,97717.91
2017-11-12T14:44:35.890Z,97718.42
2017-11-12T14:50:39.367Z,97720.92
2017-11-12T14:56:42.827Z,97715.90
2017-11-12T15:02:47.060Z,97709.98
2017-11-12T15:08:50.534Z,97723.69
2017-11-12T15:14:54.003Z,97720.83
2017-11-12T15:20:57.642Z,97715.11
2017-11-12T15:27:01.141Z,97711.95
2017-11-12T15:33:04.691Z,97705.01
2017-11-12T15:39:08.180Z,97701.20
2017-11-12T15:45:11.640Z,97695.51
2017-11-12T15:51:15.122Z,97688.33
2017-11-12T15:57:18.583Z,97691.11
2017-11-12T16:03:22.822Z,97695.09
2017-11-12T16:09:26.294Z,97700.51
2017-11-12T16:15:29.758Z,97707.88
2017-11-12T16:21:33.229Z,97718.19
2017-11-12T16:27:37.481Z,97723.72
2017-11-12T16:33:40.976Z,97728.19
2017-11-12T16:39:44.435Z,97750.86
2017-11-12T16:45:47.908Z,97758.30
2017-11-12T16:51:51.331Z,97768.77
2017-11-12T16:57:54.813Z,97776.26
2017-11-12T17:03:58.283Z,97778.52
2017-11-12T17:10:01.885Z,97794.61
2017-11-12T17:16:05.341Z,97802.05
2017-11-12T17:22:08.798Z,97802.80
2017-11-12T17:28:13.027Z,97809.12
2017-11-12T17:34:16.480Z,97823.76
2017-11-12T17:40:20.698Z,97840.66
2017-11-12T17:46:24.150Z,97841.88
2017-11-12T17:52:28.376Z,97850.44
2017-11-12T17:58:31.861Z,97848.51
2017-11-12T18:04:35.335Z,97864.56
2017-11-12T18:10:39.551Z,97873.38
2017-11-12T18:16:43.012Z,97878.03
2017-11-12T18:22:47.240Z,97885.89
2017-11-12T18:28:50.724Z,97900.62
2017-11-12T18:34:54.210Z,97909.34
2017-11-12T18:40:57.678Z,97923.55
2017-11-12T18:47:01.949Z,97939.20
2017-11-12T18:53:05.424Z,97945.00
2017-11-12T18:59:13.253Z,97960.74
2017-11-12T19:05:22.958Z,97975.41
2017-11-12T19:11:26.424Z,97983.17
2017-11-12T19:17:29.919Z,97998.92
2017-11-12T19:23:38.606Z,98002.13
2017-11-12T19:29:42.974Z,98020.26
2017-11-12T19:35:46.434Z,98031.84
2017-11-12T19:41:50.667Z,98045.19
2017-11-12T19:47:54.156Z,98054.92
2017-11-12T19:53:57.667Z,98068.72
2017-11-12T20:00:01.148Z,98080.86
2017-11-12T20:06:04.638Z,98092.33
2017-11-12T20:12:08.111Z,98106.30
2017-11-12T20:18:11.603Z,98113.29
2017-11-12T20:24:15.062Z,98123.84
2017-11-12T20:30:18.526Z,98133.07
2017-11-12T20:36:21.996Z,98141.34
2017-11-12T20:42:26.258Z,98148.67
2017-11-12T20:48:29.731Z,98154.33
2017-11-12T20:54:33.182Z,98153.78
2017-11-12T21:00:50.455Z,98159.09
2017-11-12T21:06:53.883Z,98161.05
2017-11-12T21:12:57.345Z,98167.88
2017-11-12T21:19:01.565Z,98171.45
2017-11-12T21:25:04.995Z,98179.31
2017-11-12T21:31:10.227Z,98200.89
2017-11-12T21:37:23.600Z,98213.48
2017-11-12T21:43:27.054Z,98218.16
2017-11-12T21:49:31.279Z,98231.11
2017-11-12T21:55:34.744Z,98238.38
2017-11-12T22:01:38.984Z,98246.95
2017-11-12T22:07:42.449Z,98258.00
2017-11-12T22:13:45.914Z,98261.98
2017-11-12T22:19:50.154Z,98264.84
2017-11-12T22:25:53.605Z,98278.97
2017-11-12T22:31:57.062Z,98293.52
2017-11-12T22:38:00.544Z,98305.81
2017-11-12T22:44:04.031Z,98316.37
2017-11-12T22:50:07.498Z,98326.13
2017-11-12T22:56:10.954Z,98327.19
2017-11-12T23:02:14.415Z,98340.91
2017-11-12T23:08:17.872Z,98349.84
2017-11-12T23:14:22.110Z,98357.53
2017-11-12T23:20:25.577Z,98366.45
2017-11-12T23:26:29.040Z,98372.57
2017-11-12T23:32:33.284Z,98375.09
2017-11-12T23:38:36.751Z,98381.22
2017-11-12T23:44:40.220Z,98398.52
2017-11-12T23:50:44.434Z,98399.30
2017-11-12T23:56:47.912Z,98399.78
